メインページ
METAR-TAF:

METAR-TAF

空港 :

Cherry Capital Airport

Traverse City, ミシガン州, アメリカ合衆国

緯度: 44-44-12N, 経度: 085-34-12W, 海抜: 190m

現時点の気象観測

当レポートは46分前の04:53(UTC)に作成
無風
気温 4°C
湿度 70%
気圧 1016 hPa
視程: 16.1km
晴天

METAR: KTVC 040453Z AUTO 00000KT 10SM CLR 04/M01 A3000 RMK AO2 SLP163 T00391006 401611028

時間: 01:39 (05:39 UTC)

予報

当レポートは2時間25分前の03:14(UTC)に作成
予報は04日の 03時(UTC)から 04日の 24時(UTC)まで有効
変向風 3kt
視程: 10km
高度8000ftの千切れ雲あり
04日の 1200時(UTC)から
変向風 3kt
視程: 9.7km
高度3000ftの曇り
弱いにわか雨
04日の 1500時(UTC)から
北/北西の風 7kt、最大17ktの突風を伴う
視程: 6.4km
高度700ftの曇り
弱いにわか雨
04日の 1800時(UTC)から
北/北西の風 9kt、最大19ktの突風を伴う
視程: 10km
高度900ftの曇り
04日の 2000時(UTC)から
北/北西の風 9kt、最大19ktの突風を伴う
視程: 10km
高度1000ftの千切れ雲あり

TAF: KTVC 040314Z 0403/0424 VRB03KT P6SM BKN080 FM041200 VRB03KT 6SM -SHRA OVC030 FM041500 34007G17KT 4SM -SHRA OVC007 FM041800 34009G19KT P6SM OVC009 FM042000 33009G19KT P6SM BKN010

4,000以上の空港の気象観測と天気予報(METAR報とTAF報)

利用可能な観測所は地図上に黄色い丸と赤い丸で示す。

丸の上にカーソルを重ねると観測所名を参照できる。

次にクリックすると気象観測と天気予報を参照できる。

マップの切り替え:黒色「×」印の緑ボタンをクリックして拡大、「-」印の緑ボタンをクリックして縮小、緑色の三角印をクリックして隣りの地図に切り替え


METAR-TAF: